sensor_id;sensor_type;location;lat;lon;timestamp;pressure;altitude;pressure_sealevel;temperature;humidity
50292;BME280;36190;54.980;73.388;2023-07-13T00:02:25;99498.78;;;27.84;38.07
50292;BME280;36190;54.980;73.388;2023-07-13T00:04:53;99493.28;;;27.84;38.54
50292;BME280;36190;54.980;73.388;2023-07-13T00:07:20;99501.50;;;27.84;38.35
50292;BME280;36190;54.980;73.388;2023-07-13T00:09:48;99491.63;;;27.83;38.47
50292;BME280;36190;54.980;73.388;2023-07-13T00:12:25;99495.09;;;27.89;38.34
50292;BME280;36190;54.980;73.388;2023-07-13T00:14:54;99482.50;;;27.87;38.39
50292;BME280;36190;54.980;73.388;2023-07-13T00:17:23;99493.06;;;27.94;38.41
50292;BME280;36190;54.980;73.388;2023-07-13T00:19:50;99495.88;;;28.03;38.53
50292;BME280;36190;54.980;73.388;2023-07-13T00:22:21;99489.97;;;28.10;38.15
50292;BME280;36190;54.980;73.388;2023-07-13T00:24:51;99491.16;;;28.18;38.34
50292;BME280;36190;54.980;73.388;2023-07-13T00:27:18;99489.16;;;28.23;38.42
50292;BME280;36190;54.980;73.388;2023-07-13T00:29:46;99489.53;;;28.31;37.84
50292;BME280;36190;54.980;73.388;2023-07-13T00:32:13;99488.28;;;28.37;38.25
50292;BME280;36190;54.980;73.388;2023-07-13T00:34:42;99488.50;;;28.40;38.09
50292;BME280;36190;54.980;73.388;2023-07-13T00:37:09;99487.84;;;28.44;37.72
50292;BME280;36190;54.980;73.388;2023-07-13T00:39:37;99491.13;;;28.46;38.01
50292;BME280;36190;54.980;73.388;2023-07-13T00:42:05;99487.25;;;28.47;37.68
50292;BME280;36190;54.980;73.388;2023-07-13T00:44:32;99481.31;;;28.53;37.59
50292;BME280;36190;54.980;73.388;2023-07-13T00:46:59;99482.34;;;28.58;37.56
50292;BME280;36190;54.980;73.388;2023-07-13T00:49:28;99491.06;;;28.60;37.79
50292;BME280;36190;54.980;73.388;2023-07-13T00:52:00;99485.56;;;28.60;37.95
50292;BME280;36190;54.980;73.388;2023-07-13T00:54:36;99485.25;;;28.61;37.59
50292;BME280;36190;54.980;73.388;2023-07-13T00:57:07;99477.56;;;28.72;37.54
50292;BME280;36190;54.980;73.388;2023-07-13T00:59:36;99478.97;;;28.84;37.41
50292;BME280;36190;54.980;73.388;2023-07-13T01:02:07;99477.88;;;28.93;37.64
50292;BME280;36190;54.980;73.388;2023-07-13T01:04:34;99479.56;;;29.03;37.47
50292;BME280;36190;54.980;73.388;2023-07-13T01:07:03;99490.59;;;29.12;37.58
50292;BME280;36190;54.980;73.388;2023-07-13T01:09:31;99497.72;;;29.22;37.53
50292;BME280;36190;54.980;73.388;2023-07-13T01:11:59;99514.91;;;29.28;37.02
50292;BME280;36190;54.980;73.388;2023-07-13T01:14:26;99526.69;;;29.28;37.13
50292;BME280;36190;54.980;73.388;2023-07-13T01:16:54;99522.31;;;29.27;37.49
50292;BME280;36190;54.980;73.388;2023-07-13T01:19:29;99516.47;;;29.20;37.91
50292;BME280;36190;54.980;73.388;2023-07-13T01:22:04;99507.25;;;29.16;37.92
50292;BME280;36190;54.980;73.388;2023-07-13T01:24:35;99510.13;;;29.10;38.10
50292;BME280;36190;54.980;73.388;2023-07-13T01:27:03;99505.09;;;29.04;38.63
50292;BME280;36190;54.980;73.388;2023-07-13T01:29:33;99491.94;;;28.92;39.04
50292;BME280;36190;54.980;73.388;2023-07-13T01:32:01;99491.94;;;28.92;39.04
50292;BME280;36190;54.980;73.388;2023-07-13T01:34:28;99496.00;;;28.94;39.23
50292;BME280;36190;54.980;73.388;2023-07-13T01:36:55;99498.41;;;28.96;39.11
50292;BME280;36190;54.980;73.388;2023-07-13T01:39:24;99487.19;;;29.06;39.02
50292;BME280;36190;54.980;73.388;2023-07-13T01:41:51;99475.56;;;29.18;38.86
50292;BME280;36190;54.980;73.388;2023-07-13T01:44:18;99478.72;;;29.34;38.76
50292;BME280;36190;54.980;73.388;2023-07-13T01:46:46;99476.19;;;29.47;38.95
50292;BME280;36190;54.980;73.388;2023-07-13T01:49:13;99472.34;;;29.57;38.62
50292;BME280;36190;54.980;73.388;2023-07-13T01:51:40;99464.47;;;29.64;38.69
50292;BME280;36190;54.980;73.388;2023-07-13T01:54:07;99464.31;;;29.69;38.45
50292;BME280;36190;54.980;73.388;2023-07-13T01:56:36;99459.00;;;29.73;38.45
50292;BME280;36190;54.980;73.388;2023-07-13T01:59:04;99460.63;;;29.74;37.77
50292;BME280;36190;54.980;73.388;2023-07-13T02:01:31;99460.44;;;29.70;37.99
50292;BME280;36190;54.980;73.388;2023-07-13T02:03:58;99458.66;;;29.66;37.92
50292;BME280;36190;54.980;73.388;2023-07-13T02:06:26;99452.69;;;29.63;38.09
50292;BME280;36190;54.980;73.388;2023-07-13T02:08:53;99451.03;;;29.62;38.22
50292;BME280;36190;54.980;73.388;2023-07-13T02:11:21;99441.50;;;29.69;38.28
50292;BME280;36190;54.980;73.388;2023-07-13T02:13:50;99441.84;;;29.76;38.12
50292;BME280;36190;54.980;73.388;2023-07-13T02:16:17;99443.81;;;29.84;37.50
50292;BME280;36190;54.980;73.388;2023-07-13T02:18:44;99444.13;;;29.91;37.60
50292;BME280;36190;54.980;73.388;2023-07-13T02:21:12;99439.59;;;29.96;37.41
50292;BME280;36190;54.980;73.388;2023-07-13T02:23:39;99430.25;;;29.97;37.23
50292;BME280;36190;54.980;73.388;2023-07-13T02:26:06;99427.66;;;30.00;37.28
50292;BME280;36190;54.980;73.388;2023-07-13T02:28:34;99428.31;;;30.06;37.38
50292;BME280;36190;54.980;73.388;2023-07-13T02:31:07;99428.97;;;30.12;37.82
50292;BME280;36190;54.980;73.388;2023-07-13T02:33:35;99431.88;;;30.15;37.33
50292;BME280;36190;54.980;73.388;2023-07-13T02:36:02;99431.69;;;30.21;37.85
50292;BME280;36190;54.980;73.388;2023-07-13T02:38:31;99431.53;;;30.26;37.34
50292;BME280;36190;54.980;73.388;2023-07-13T02:40:59;99433.66;;;30.29;37.56
50292;BME280;36190;54.980;73.388;2023-07-13T02:43:27;99426.38;;;30.33;37.48
50292;BME280;36190;54.980;73.388;2023-07-13T02:45:55;99429.91;;;30.42;37.84
50292;BME280;36190;54.980;73.388;2023-07-13T02:48:27;99427.31;;;30.46;37.70
50292;BME280;36190;54.980;73.388;2023-07-13T02:50:54;99426.34;;;30.51;38.15
50292;BME280;36190;54.980;73.388;2023-07-13T02:53:22;99421.31;;;30.53;38.11
50292;BME280;36190;54.980;73.388;2023-07-13T02:55:49;99420.47;;;30.61;37.62
50292;BME280;36190;54.980;73.388;2023-07-13T02:58:17;99427.94;;;30.69;37.95
50292;BME280;36190;54.980;73.388;2023-07-13T03:00:45;99422.09;;;30.80;37.59
50292;BME280;36190;54.980;73.388;2023-07-13T03:03:13;99417.69;;;30.87;37.69
50292;BME280;36190;54.980;73.388;2023-07-13T03:05:43;99423.81;;;30.93;37.79
50292;BME280;36190;54.980;73.388;2023-07-13T03:08:16;99426.69;;;31.06;37.46
50292;BME280;36190;54.980;73.388;2023-07-13T03:10:44;99423.41;;;31.12;37.05
50292;BME280;36190;54.980;73.388;2023-07-13T03:13:12;99419.00;;;31.20;36.92
50292;BME280;36190;54.980;73.388;2023-07-13T03:15:39;99436.19;;;31.26;36.42
50292;BME280;36190;54.980;73.388;2023-07-13T03:18:06;99418.00;;;31.34;36.34
50292;BME280;36190;54.980;73.388;2023-07-13T03:20:34;99406.59;;;31.44;36.09
50292;BME280;36190;54.980;73.388;2023-07-13T03:23:04;99420.31;;;31.53;35.88
50292;BME280;36190;54.980;73.388;2023-07-13T03:25:31;99428.41;;;31.58;35.62
50292;BME280;36190;54.980;73.388;2023-07-13T03:27:58;99409.44;;;31.56;35.41
50292;BME280;36190;54.980;73.388;2023-07-13T03:30:28;99421.41;;;31.61;34.99
50292;BME280;36190;54.980;73.388;2023-07-13T03:32:55;99412.75;;;31.71;34.67
50292;BME280;36190;54.980;73.388;2023-07-13T03:35:23;99404.75;;;31.78;34.95
50292;BME280;36190;54.980;73.388;2023-07-13T03:37:50;99407.59;;;31.91;34.85
50292;BME280;36190;54.980;73.388;2023-07-13T03:40:19;99406.94;;;31.94;34.08
50292;BME280;36190;54.980;73.388;2023-07-13T03:42:47;99417.13;;;31.93;34.10
50292;BME280;36190;54.980;73.388;2023-07-13T03:45:15;99408.25;;;31.88;33.65
50292;BME280;36190;54.980;73.388;2023-07-13T03:47:42;99406.66;;;31.87;34.15
50292;BME280;36190;54.980;73.388;2023-07-13T03:50:09;99417.13;;;31.93;33.79
50292;BME280;36190;54.980;73.388;2023-07-13T03:52:37;99420.50;;;31.99;33.81
50292;BME280;36190;54.980;73.388;2023-07-13T03:55:05;99426.00;;;31.99;33.77
50292;BME280;36190;54.980;73.388;2023-07-13T03:57:34;99422.09;;;32.00;33.86
50292;BME280;36190;54.980;73.388;2023-07-13T04:00:01;99418.47;;;32.08;33.86
50292;BME280;36190;54.980;73.388;2023-07-13T04:02:29;99403.13;;;32.20;33.72
50292;BME280;36190;54.980;73.388;2023-07-13T04:04:56;99405.25;;;32.35;33.75
50292;BME280;36190;54.980;73.388;2023-07-13T04:07:24;99405.19;;;32.44;33.80
50292;BME280;36190;54.980;73.388;2023-07-13T04:09:51;99409.66;;;32.49;33.12
50292;BME280;36190;54.980;73.388;2023-07-13T04:12:18;99409.34;;;32.50;33.00
50292;BME280;36190;54.980;73.388;2023-07-13T04:14:47;99409.00;;;32.52;32.98
50292;BME280;36190;54.980;73.388;2023-07-13T04:17:14;99409.47;;;32.54;32.38
50292;BME280;36190;54.980;73.388;2023-07-13T04:19:42;99423.41;;;32.58;31.94
50292;BME280;36190;54.980;73.388;2023-07-13T04:22:09;99416.38;;;32.60;31.92
50292;BME280;36190;54.980;73.388;2023-07-13T04:24:36;99411.00;;;32.64;31.86
50292;BME280;36190;54.980;73.388;2023-07-13T04:27:04;99415.03;;;32.67;31.67
50292;BME280;36190;54.980;73.388;2023-07-13T04:29:32;99410.28;;;32.67;31.67
50292;BME280;36190;54.980;73.388;2023-07-13T04:32:01;99404.66;;;32.63;31.84
50292;BME280;36190;54.980;73.388;2023-07-13T04:34:28;99409.63;;;32.70;31.96
50292;BME280;36190;54.980;73.388;2023-07-13T04:36:55;99404.91;;;32.71;31.91
50292;BME280;36190;54.980;73.388;2023-07-13T04:39:22;99408.59;;;32.75;32.17
50292;BME280;36190;54.980;73.388;2023-07-13T04:41:49;99406.16;;;32.73;32.39
50292;BME280;36190;54.980;73.388;2023-07-13T04:44:17;99407.44;;;32.76;32.46
50292;BME280;36190;54.980;73.388;2023-07-13T04:46:44;99413.75;;;32.76;32.35
50292;BME280;36190;54.980;73.388;2023-07-13T04:49:13;99414.69;;;32.81;32.74
50292;BME280;36190;54.980;73.388;2023-07-13T04:51:40;99411.81;;;32.89;32.51
50292;BME280;36190;54.980;73.388;2023-07-13T04:54:07;99421.31;;;33.01;32.33
50292;BME280;36190;54.980;73.388;2023-07-13T04:56:35;99415.53;;;33.06;31.96
50292;BME280;36190;54.980;73.388;2023-07-13T04:59:02;99416.72;;;33.17;31.62
50292;BME280;36190;54.980;73.388;2023-07-13T05:01:29;99414.41;;;33.32;31.56
50292;BME280;36190;54.980;73.388;2023-07-13T05:03:56;99419.78;;;33.41;31.61
50292;BME280;36190;54.980;73.388;2023-07-13T05:06:26;99411.63;;;33.44;31.46
50292;BME280;36190;54.980;73.388;2023-07-13T05:08:54;99427.06;;;33.58;31.23
50292;BME280;36190;54.980;73.388;2023-07-13T05:11:21;99423.81;;;33.68;30.91
50292;BME280;36190;54.980;73.388;2023-07-13T05:13:48;99421.03;;;33.81;30.56
50292;BME280;36190;54.980;73.388;2023-07-13T05:16:16;99423.03;;;33.96;30.26
50292;BME280;36190;54.980;73.388;2023-07-13T05:18:43;99425.81;;;34.09;30.00
50292;BME280;36190;54.980;73.388;2023-07-13T05:21:10;99420.69;;;34.23;30.05
50292;BME280;36190;54.980;73.388;2023-07-13T05:23:39;99410.06;;;34.25;30.02
50292;BME280;36190;54.980;73.388;2023-07-13T05:26:08;99413.63;;;34.26;30.19
50292;BME280;36190;54.980;73.388;2023-07-13T05:28:36;99416.03;;;34.27;30.09
50292;BME280;36190;54.980;73.388;2023-07-13T05:31:04;99410.59;;;34.31;29.96
50292;BME280;36190;54.980;73.388;2023-07-13T05:33:31;99400.53;;;34.39;30.07
50292;BME280;36190;54.980;73.388;2023-07-13T05:35:58;99396.09;;;34.50;29.87
50292;BME280;36190;54.980;73.388;2023-07-13T05:38:26;99404.16;;;34.55;29.91
50292;BME280;36190;54.980;73.388;2023-07-13T05:40:56;99401.13;;;34.61;29.73
50292;BME280;36190;54.980;73.388;2023-07-13T05:43:23;99402.72;;;34.62;30.06
50292;BME280;36190;54.980;73.388;2023-07-13T05:45:52;99396.75;;;34.60;30.23
50292;BME280;36190;54.980;73.388;2023-07-13T05:48:20;99389.94;;;34.57;30.09
50292;BME280;36190;54.980;73.388;2023-07-13T05:50:47;99385.50;;;34.68;29.91
50292;BME280;36190;54.980;73.388;2023-07-13T05:53:15;99373.06;;;34.78;29.60
50292;BME280;36190;54.980;73.388;2023-07-13T05:55:43;99382.03;;;34.88;29.44
50292;BME280;36190;54.980;73.388;2023-07-13T05:58:14;99378.09;;;34.89;29.94
50292;BME280;36190;54.980;73.388;2023-07-13T06:00:41;99377.44;;;34.95;29.60
50292;BME280;36190;54.980;73.388;2023-07-13T06:03:09;99370.91;;;35.04;29.45
50292;BME280;36190;54.980;73.388;2023-07-13T06:05:37;99359.28;;;35.14;29.62
50292;BME280;36190;54.980;73.388;2023-07-13T06:08:07;99372.63;;;35.24;29.51
50292;BME280;36190;54.980;73.388;2023-07-13T06:10:35;99370.78;;;35.32;29.24
50292;BME280;36190;54.980;73.388;2023-07-13T06:13:03;99372.91;;;35.39;29.23
50292;BME280;36190;54.980;73.388;2023-07-13T06:15:32;99373.66;;;35.36;28.64
50292;BME280;36190;54.980;73.388;2023-07-13T06:17:59;99372.03;;;35.35;28.54
50292;BME280;36190;54.980;73.388;2023-07-13T06:20:27;99371.22;;;35.34;28.76
50292;BME280;36190;54.980;73.388;2023-07-13T06:22:54;99371.22;;;35.34;28.82
50292;BME280;36190;54.980;73.388;2023-07-13T06:25:22;99364.25;;;35.41;28.80
50292;BME280;36190;54.980;73.388;2023-07-13T06:27:49;99365.13;;;35.45;28.75
50292;BME280;36190;54.980;73.388;2023-07-13T06:30:16;99359.28;;;35.50;28.56
50292;BME280;36190;54.980;73.388;2023-07-13T06:32:45;99361.78;;;35.55;28.39
50292;BME280;36190;54.980;73.388;2023-07-13T06:35:12;99352.84;;;35.62;28.35
50292;BME280;36190;54.980;73.388;2023-07-13T06:37:40;99342.63;;;35.66;28.03
50292;BME280;36190;54.980;73.388;2023-07-13T06:40:08;99343.63;;;35.77;28.03
50292;BME280;36190;54.980;73.388;2023-07-13T06:42:35;99341.50;;;35.90;28.03
50292;BME280;36190;54.980;73.388;2023-07-13T06:45:05;99342.47;;;35.98;27.76
50292;BME280;36190;54.980;73.388;2023-07-13T06:47:32;99338.59;;;36.03;27.28
50292;BME280;36190;54.980;73.388;2023-07-13T06:50:01;99338.31;;;36.08;27.39
50292;BME280;36190;54.980;73.388;2023-07-13T06:52:28;99323.69;;;36.11;27.59
50292;BME280;36190;54.980;73.388;2023-07-13T06:54:55;99334.13;;;36.18;27.28
50292;BME280;36190;54.980;73.388;2023-07-13T06:57:23;99324.81;;;36.30;27.67
50292;BME280;36190;54.980;73.388;2023-07-13T06:59:50;99323.34;;;36.36;26.87
50292;BME280;36190;54.980;73.388;2023-07-13T07:02:17;99328.16;;;36.39;26.55
50292;BME280;36190;54.980;73.388;2023-07-13T07:04:44;99331.34;;;36.41;25.93
50292;BME280;36190;54.980;73.388;2023-07-13T07:07:13;99330.75;;;36.52;25.90
50292;BME280;36190;54.980;73.388;2023-07-13T07:09:40;99325.44;;;36.66;25.71
50292;BME280;36190;54.980;73.388;2023-07-13T07:12:08;99329.31;;;36.85;25.64
50292;BME280;36190;54.980;73.388;2023-07-13T07:14:35;99322.00;;;37.00;25.65
50292;BME280;36190;54.980;73.388;2023-07-13T07:17:03;99335.75;;;37.16;25.43
50292;BME280;36190;54.980;73.388;2023-07-13T07:19:31;99341.38;;;37.20;25.33
50292;BME280;36190;54.980;73.388;2023-07-13T07:21:58;99333.06;;;37.23;25.65
50292;BME280;36190;54.980;73.388;2023-07-13T07:24:26;99341.41;;;37.23;25.44
50292;BME280;36190;54.980;73.388;2023-07-13T07:26:54;99339.06;;;37.25;25.78
50292;BME280;36190;54.980;73.388;2023-07-13T07:29:21;99333.56;;;37.29;25.50
50292;BME280;36190;54.980;73.388;2023-07-13T07:31:51;99325.78;;;37.42;25.39
50292;BME280;36190;54.980;73.388;2023-07-13T07:34:19;99332.38;;;37.61;24.81
50292;BME280;36190;54.980;73.388;2023-07-13T07:36:46;99318.28;;;37.80;24.31
50292;BME280;36190;54.980;73.388;2023-07-13T07:39:13;99317.25;;;37.96;24.01
50292;BME280;36190;54.980;73.388;2023-07-13T07:41:43;99327.31;;;38.04;23.86
50292;BME280;36190;54.980;73.388;2023-07-13T07:44:10;99325.03;;;38.14;24.03
50292;BME280;36190;54.980;73.388;2023-07-13T07:46:39;99318.38;;;38.25;24.20
50292;BME280;36190;54.980;73.388;2023-07-13T07:49:07;99318.91;;;38.42;23.70
50292;BME280;36190;54.980;73.388;2023-07-13T07:51:34;99317.44;;;38.52;23.43
50292;BME280;36190;54.980;73.388;2023-07-13T07:54:01;99320.78;;;38.72;23.12
50292;BME280;36190;54.980;73.388;2023-07-13T07:56:29;99320.84;;;38.83;22.65
50292;BME280;36190;54.980;73.388;2023-07-13T07:58:57;99323.28;;;38.88;22.49
50292;BME280;36190;54.980;73.388;2023-07-13T08:01:25;99323.03;;;39.08;22.88
50292;BME280;36190;54.980;73.388;2023-07-13T08:03:52;99321.53;;;39.22;22.63
50292;BME280;36190;54.980;73.388;2023-07-13T08:06:19;99315.53;;;39.27;22.13
50292;BME280;36190;54.980;73.388;2023-07-13T08:08:47;99317.97;;;39.32;22.32
50292;BME280;36190;54.980;73.388;2023-07-13T08:11:15;99309.25;;;39.37;22.09
50292;BME280;36190;54.980;73.388;2023-07-13T08:13:43;99317.28;;;39.50;21.70
50292;BME280;36190;54.980;73.388;2023-07-13T08:16:12;99319.31;;;39.67;21.25
50292;BME280;36190;54.980;73.388;2023-07-13T08:18:39;99308.28;;;39.96;21.06
50292;BME280;36190;54.980;73.388;2023-07-13T08:21:07;99319.88;;;40.27;20.79
50292;BME280;36190;54.980;73.388;2023-07-13T08:23:35;99319.91;;;40.56;20.47
50292;BME280;36190;54.980;73.388;2023-07-13T08:26:03;99315.91;;;40.87;20.40
50292;BME280;36190;54.980;73.388;2023-07-13T08:28:31;99304.69;;;41.08;19.72
50292;BME280;36190;54.980;73.388;2023-07-13T08:31:01;99305.81;;;41.29;19.86
50292;BME280;36190;54.980;73.388;2023-07-13T08:33:29;99298.59;;;41.39;19.27
50292;BME280;36190;54.980;73.388;2023-07-13T08:35:57;99304.19;;;41.43;19.10
50292;BME280;36190;54.980;73.388;2023-07-13T08:38:24;99303.00;;;41.36;18.73
50292;BME280;36190;54.980;73.388;2023-07-13T08:40:53;99298.16;;;41.41;18.63
50292;BME280;36190;54.980;73.388;2023-07-13T08:43:25;99305.28;;;41.56;18.00
50292;BME280;36190;54.980;73.388;2023-07-13T08:45:54;99291.72;;;41.58;18.12
50292;BME280;36190;54.980;73.388;2023-07-13T08:48:27;99304.03;;;41.64;17.80
50292;BME280;36190;54.980;73.388;2023-07-13T08:50:59;99298.88;;;41.70;18.09
50292;BME280;36190;54.980;73.388;2023-07-13T08:53:33;99300.78;;;41.84;17.81
50292;BME280;36190;54.980;73.388;2023-07-13T08:56:02;99303.41;;;42.06;17.97
50292;BME280;36190;54.980;73.388;2023-07-13T08:58:30;99301.66;;;42.34;18.03
50292;BME280;36190;54.980;73.388;2023-07-13T09:01:04;99297.56;;;42.42;17.65
50292;BME280;36190;54.980;73.388;2023-07-13T09:03:40;99297.47;;;42.57;17.61
50292;BME280;36190;54.980;73.388;2023-07-13T09:06:12;99291.69;;;42.71;17.45
50292;BME280;36190;54.980;73.388;2023-07-13T09:08:51;99297.03;;;43.00;17.41
50292;BME280;36190;54.980;73.388;2023-07-13T09:11:32;99292.50;;;43.14;17.28
50292;BME280;36190;54.980;73.388;2023-07-13T09:14:11;99291.31;;;43.11;17.28
50292;BME280;36190;54.980;73.388;2023-07-13T09:16:47;99294.53;;;43.10;17.04
50292;BME280;36190;54.980;73.388;2023-07-13T09:19:20;99294.69;;;42.95;17.18
50292;BME280;36190;54.980;73.388;2023-07-13T09:21:51;99284.28;;;42.92;17.34
50292;BME280;36190;54.980;73.388;2023-07-13T09:24:31;99278.66;;;42.96;17.68
50292;BME280;36190;54.980;73.388;2023-07-13T09:27:12;99270.31;;;42.88;17.59
50292;BME280;36190;54.980;73.388;2023-07-13T09:29:47;99269.84;;;42.97;17.19
50292;BME280;36190;54.980;73.388;2023-07-13T09:32:18;99273.53;;;43.22;17.05
50292;BME280;36190;54.980;73.388;2023-07-13T09:34:52;99271.56;;;43.53;17.24
50292;BME280;36190;54.980;73.388;2023-07-13T09:37:28;99270.66;;;43.60;16.77
50292;BME280;36190;54.980;73.388;2023-07-13T09:39:56;99262.56;;;43.66;16.86
50292;BME280;36190;54.980;73.388;2023-07-13T09:42:25;99267.03;;;43.60;17.15
50292;BME280;36190;54.980;73.388;2023-07-13T09:44:55;99271.56;;;43.53;17.13
50292;BME280;36190;54.980;73.388;2023-07-13T09:47:26;99255.31;;;43.68;16.59
50292;BME280;36190;54.980;73.388;2023-07-13T09:49:56;99272.81;;;44.31;16.60
50292;BME280;36190;54.980;73.388;2023-07-13T09:52:26;99271.19;;;44.78;16.27
50292;BME280;36190;54.980;73.388;2023-07-13T09:54:55;99273.16;;;45.01;15.87
50292;BME280;36190;54.980;73.388;2023-07-13T09:57:26;99270.63;;;45.07;15.29
50292;BME280;36190;54.980;73.388;2023-07-13T09:59:55;99266.28;;;44.82;15.32
50292;BME280;36190;54.980;73.388;2023-07-13T10:02:27;99268.81;;;44.76;15.23
50292;BME280;36190;54.980;73.388;2023-07-13T10:04:59;99272.78;;;44.79;14.82
50292;BME280;36190;54.980;73.388;2023-07-13T10:07:28;99270.31;;;44.81;15.08
50292;BME280;36190;54.980;73.388;2023-07-13T10:09:56;99261.63;;;45.16;14.77
50292;BME280;36190;54.980;73.388;2023-07-13T10:12:24;99260.69;;;45.76;14.69
50292;BME280;36190;54.980;73.388;2023-07-13T10:14:55;99262.56;;;46.49;14.23
50292;BME280;36190;54.980;73.388;2023-07-13T10:17:27;99262.88;;;46.98;13.75
50292;BME280;36190;54.980;73.388;2023-07-13T10:19:59;99263.06;;;46.90;14.13
50292;BME280;36190;54.980;73.388;2023-07-13T10:22:36;99254.97;;;46.63;14.04
50292;BME280;36190;54.980;73.388;2023-07-13T10:25:14;99258.41;;;46.54;14.70
50292;BME280;36190;54.980;73.388;2023-07-13T10:27:43;99253.47;;;46.88;14.33
50292;BME280;36190;54.980;73.388;2023-07-13T10:30:14;99250.75;;;47.27;14.17
50292;BME280;36190;54.980;73.388;2023-07-13T10:32:43;99254.53;;;47.62;14.39
50292;BME280;36190;54.980;73.388;2023-07-13T10:35:12;99252.91;;;47.61;14.03
50292;BME280;36190;54.980;73.388;2023-07-13T10:37:46;99251.03;;;47.45;13.97
50292;BME280;36190;54.980;73.388;2023-07-13T10:40:18;99244.00;;;47.63;14.40
50292;BME280;36190;54.980;73.388;2023-07-13T10:42:50;99229.00;;;47.79;13.91
50292;BME280;36190;54.980;73.388;2023-07-13T10:45:20;99243.78;;;47.70;14.02
50292;BME280;36190;54.980;73.388;2023-07-13T10:47:48;99226.81;;;47.70;13.86
50292;BME280;36190;54.980;73.388;2023-07-13T10:50:21;99236.88;;;47.84;13.70
50292;BME280;36190;54.980;73.388;2023-07-13T10:52:52;99233.34;;;48.06;13.56
50292;BME280;36190;54.980;73.388;2023-07-13T10:55:35;99232.25;;;47.90;13.53
50292;BME280;36190;54.980;73.388;2023-07-13T10:58:13;99227.03;;;47.89;13.34
50292;BME280;36190;54.980;73.388;2023-07-13T11:00:47;99226.03;;;47.70;13.48
50292;BME280;36190;54.980;73.388;2023-07-13T11:03:18;99218.34;;;47.83;12.76
50292;BME280;36190;54.980;73.388;2023-07-13T11:05:48;99222.59;;;48.01;12.47
50292;BME280;36190;54.980;73.388;2023-07-13T11:08:20;99227.38;;;48.04;12.26
50292;BME280;36190;54.980;73.388;2023-07-13T11:10:58;99225.59;;;47.84;12.40
50292;BME280;36190;54.980;73.388;2023-07-13T11:13:56;99243.59;;;48.26;12.78
50292;BME280;36190;54.980;73.388;2023-07-13T11:16:36;99228.78;;;48.57;12.19
50292;BME280;36190;54.980;73.388;2023-07-13T11:19:29;99235.06;;;49.28;12.18
50292;BME280;36190;54.980;73.388;2023-07-13T11:22:26;99235.66;;;48.91;12.47
50292;BME280;36190;54.980;73.388;2023-07-13T11:25:26;99221.16;;;47.05;13.05
50292;BME280;36190;54.980;73.388;2023-07-13T11:28:07;99220.81;;;45.44;13.93
50292;BME280;36190;54.980;73.388;2023-07-13T11:30:41;99205.13;;;44.86;14.64
50292;BME280;36190;54.980;73.388;2023-07-13T11:33:16;99210.88;;;45.19;14.40
50292;BME280;36190;54.980;73.388;2023-07-13T11:36:00;99208.72;;;45.81;14.32
50292;BME280;36190;54.980;73.388;2023-07-13T11:38:32;99197.63;;;46.23;14.09
50292;BME280;36190;54.980;73.388;2023-07-13T11:41:04;99202.88;;;46.80;13.54
50292;BME280;36190;54.980;73.388;2023-07-13T11:43:32;99198.22;;;47.29;13.78
50292;BME280;36190;54.980;73.388;2023-07-13T11:46:12;99205.41;;;47.47;13.68
50292;BME280;36190;54.980;73.388;2023-07-13T11:48:41;99194.41;;;47.75;13.48
50292;BME280;36190;54.980;73.388;2023-07-13T11:51:17;99198.59;;;48.18;13.21
50292;BME280;36190;54.980;73.388;2023-07-13T11:53:48;99190.06;;;48.31;12.85
50292;BME280;36190;54.980;73.388;2023-07-13T11:56:19;99185.53;;;47.99;13.09
50292;BME280;36190;54.980;73.388;2023-07-13T11:58:49;99189.44;;;47.27;14.03
50292;BME280;36190;54.980;73.388;2023-07-13T12:01:21;99182.28;;;46.08;14.97
50292;BME280;36190;54.980;73.388;2023-07-13T12:03:49;99182.63;;;44.86;15.17
50292;BME280;36190;54.980;73.388;2023-07-13T12:06:26;99192.09;;;43.56;16.15
50292;BME280;36190;54.980;73.388;2023-07-13T12:08:58;99174.38;;;42.31;16.93
50292;BME280;36190;54.980;73.388;2023-07-13T12:11:27;99173.03;;;41.45;17.92
50292;BME280;36190;54.980;73.388;2023-07-13T12:13:55;99163.75;;;40.77;18.73
50292;BME280;36190;54.980;73.388;2023-07-13T12:16:27;99165.06;;;40.18;19.23
50292;BME280;36190;54.980;73.388;2023-07-13T12:18:56;99151.50;;;39.72;20.21
50292;BME280;36190;54.980;73.388;2023-07-13T12:21:31;99165.34;;;39.36;20.55
50292;BME280;36190;54.980;73.388;2023-07-13T12:23:59;99154.53;;;39.09;21.73
50292;BME280;36190;54.980;73.388;2023-07-13T12:26:31;99155.25;;;38.91;21.98
50292;BME280;36190;54.980;73.388;2023-07-13T12:29:00;99158.38;;;38.75;22.06
50292;BME280;36190;54.980;73.388;2023-07-13T12:31:34;99145.59;;;38.63;22.65
50292;BME280;36190;54.980;73.388;2023-07-13T12:34:08;99147.91;;;38.54;22.96
50292;BME280;36190;54.980;73.388;2023-07-13T12:36:38;99143.94;;;38.51;23.03
50292;BME280;36190;54.980;73.388;2023-07-13T12:39:16;99149.53;;;38.59;23.25
50292;BME280;36190;54.980;73.388;2023-07-13T12:41:46;99148.75;;;38.58;22.88
50292;BME280;36190;54.980;73.388;2023-07-13T12:44:15;99144.75;;;38.56;22.63
50292;BME280;36190;54.980;73.388;2023-07-13T12:46:53;99136.75;;;38.54;22.86
50292;BME280;36190;54.980;73.388;2023-07-13T12:49:26;99142.25;;;38.40;23.43
50292;BME280;36190;54.980;73.388;2023-07-13T12:51:58;99135.69;;;38.14;23.72
50292;BME280;36190;54.980;73.388;2023-07-13T12:54:27;99125.22;;;37.96;23.82
50292;BME280;36190;54.980;73.388;2023-07-13T12:56:58;99118.38;;;37.82;24.31
50292;BME280;36190;54.980;73.388;2023-07-13T12:59:31;99111.50;;;37.69;24.44
50292;BME280;36190;54.980;73.388;2023-07-13T13:02:02;99104.63;;;37.59;24.58
50292;BME280;36190;54.980;73.388;2023-07-13T13:04:30;99106.25;;;37.60;24.42